createdAt,value
2022-11-06T00:00:31.450Z,15.6
2022-11-06T00:01:35.987Z,15.4
2022-11-06T00:02:40.630Z,14.8
2022-11-06T00:03:45.194Z,15.2
2022-11-06T00:04:49.687Z,15.3
2022-11-06T00:05:53.815Z,15.2
2022-11-06T00:07:06.575Z,14.8
2022-11-06T00:08:11.577Z,15.2
2022-11-06T00:09:15.828Z,15.2
2022-11-06T00:10:20.339Z,14.9
2022-11-06T00:11:25.004Z,15.5
2022-11-06T00:12:29.684Z,15.4
2022-11-06T00:13:34.023Z,14.4
2022-11-06T00:14:38.642Z,15.2
2022-11-06T00:15:43.316Z,15.4
2022-11-06T00:16:47.889Z,14.4
2022-11-06T00:17:52.363Z,15.5
2022-11-06T00:18:56.523Z,14.9
2022-11-06T00:20:01.187Z,15.1
2022-11-06T00:21:06.334Z,14.5
2022-11-06T00:22:10.754Z,14.2
2022-11-06T00:23:14.799Z,14.5
2022-11-06T00:24:19.440Z,14.7
2022-11-06T00:25:24.017Z,15.2
2022-11-06T00:26:28.595Z,14.2
2022-11-06T00:27:33.114Z,14.7
2022-11-06T00:28:37.454Z,15.8
2022-11-06T00:29:41.915Z,14.3
2022-11-06T00:30:46.537Z,14.6
2022-11-06T00:31:51.079Z,15.4
2022-11-06T00:32:55.185Z,15.7
2022-11-06T00:34:01.274Z,14.3
2022-11-06T00:35:07.145Z,14.1
2022-11-06T00:36:11.491Z,14.8
2022-11-06T00:37:18.632Z,14.6
2022-11-06T00:38:22.836Z,14.6
2022-11-06T00:39:27.463Z,13.9
2022-11-06T00:40:31.843Z,14.8
2022-11-06T00:41:35.987Z,14.4
2022-11-06T00:42:40.516Z,14.6
2022-11-06T00:43:44.962Z,14.5
2022-11-06T00:44:49.471Z,14.7
2022-11-06T00:45:54.211Z,14.9
2022-11-06T00:47:04.627Z,15.3
2022-11-06T00:48:09.039Z,15.3
2022-11-06T00:49:13.317Z,15.2
2022-11-06T00:50:18.019Z,14.8
2022-11-06T00:51:22.511Z,14.7
2022-11-06T00:52:29.707Z,14.7
2022-11-06T00:53:34.094Z,15.4
2022-11-06T00:54:38.712Z,15.4
2022-11-06T00:55:43.368Z,14.6
2022-11-06T00:56:47.963Z,13.7
2022-11-06T00:57:52.602Z,15.1
2022-11-06T00:58:57.427Z,14.4
2022-11-06T01:00:01.747Z,14.1
2022-11-06T01:01:06.332Z,14.6
2022-11-06T01:02:11.090Z,15
2022-11-06T01:03:15.431Z,13.9
2022-11-06T01:04:19.604Z,14.5
2022-11-06T01:05:24.151Z,15.2
2022-11-06T01:06:28.867Z,14.1
2022-11-06T01:07:33.428Z,14.8
2022-11-06T01:08:37.922Z,14.1
2022-11-06T01:09:42.538Z,14.8
2022-11-06T01:10:47.153Z,15.6
2022-11-06T01:12:56.344Z,14.6
2022-11-06T01:14:00.775Z,15.6
2022-11-06T01:15:04.876Z,14.2
2022-11-06T01:16:09.495Z,15.6
2022-11-06T01:17:14.141Z,14.4
2022-11-06T01:18:18.537Z,15.8
2022-11-06T01:19:22.779Z,15.4
2022-11-06T01:20:27.379Z,15.6
2022-11-06T01:21:31.944Z,15.7
2022-11-06T01:22:36.468Z,15.3
2022-11-06T01:23:40.466Z,15.9
2022-11-06T01:24:44.638Z,15.5
2022-11-06T01:25:48.748Z,15
2022-11-06T01:27:25.312Z,16.5
2022-11-06T01:28:02.600Z,16.3
2022-11-06T01:29:07.324Z,15
2022-11-06T01:30:11.911Z,15
2022-11-06T01:31:16.419Z,15.2
2022-11-06T01:32:20.955Z,15.3
2022-11-06T01:33:25.703Z,14.9
2022-11-06T01:34:30.272Z,15.1
2022-11-06T01:35:34.630Z,14.6
2022-11-06T01:36:38.659Z,14.9
2022-11-06T01:37:43.100Z,14.1
2022-11-06T01:38:47.493Z,15
2022-11-06T01:39:52.074Z,14.7
2022-11-06T01:40:56.687Z,15.6
2022-11-06T01:42:01.315Z,14.6
2022-11-06T01:43:06.159Z,14.4
2022-11-06T01:44:10.622Z,14.8
2022-11-06T01:45:15.051Z,14.8
2022-11-06T01:46:27.651Z,14.7
2022-11-06T01:47:31.848Z,15.3
2022-11-06T01:48:36.380Z,14.8
2022-11-06T01:49:40.767Z,14
2022-11-06T01:50:45.190Z,14.9
2022-11-06T01:51:49.328Z,14.3
2022-11-06T01:52:54.083Z,14.6
2022-11-06T01:53:58.455Z,14.5
2022-11-06T01:55:02.663Z,14.2
2022-11-06T01:56:12.806Z,14.5
2022-11-06T01:57:17.022Z,14.2
2022-11-06T01:58:21.875Z,15
2022-11-06T01:59:26.182Z,14.3
2022-11-06T02:00:30.775Z,15.1
2022-11-06T02:01:35.429Z,14.6
2022-11-06T02:02:40.013Z,14.4
2022-11-06T02:03:43.967Z,14.9
2022-11-06T02:04:53.660Z,15.2
2022-11-06T02:05:58.230Z,15.9
2022-11-06T02:07:02.396Z,15.5
2022-11-06T02:08:06.978Z,14.8
2022-11-06T02:09:11.535Z,14.3
2022-11-06T02:10:15.711Z,15.3
2022-11-06T02:11:20.135Z,14.9
2022-11-06T02:12:24.840Z,14.7
2022-11-06T02:13:34.437Z,15.2
2022-11-06T02:14:44.122Z,14.9
2022-11-06T02:15:56.366Z,14.9
2022-11-06T02:17:11.174Z,15.7
2022-11-06T02:18:26.019Z,15.5
2022-11-06T02:19:35.482Z,15.4
2022-11-06T02:20:50.390Z,15.7
2022-11-06T02:22:05.310Z,15.5
2022-11-06T02:23:19.978Z,15
2022-11-06T02:24:32.090Z,15.2
2022-11-06T02:25:44.167Z,14.5
2022-11-06T02:26:59.138Z,15.6
2022-11-06T02:28:08.812Z,15.3
2022-11-06T02:29:13.423Z,16.1
2022-11-06T02:30:17.634Z,15.2
2022-11-06T02:31:22.078Z,15
2022-11-06T02:32:26.794Z,14.5
2022-11-06T02:33:34.374Z,15.3
2022-11-06T02:34:46.598Z,15
2022-11-06T02:35:51.259Z,15.4
2022-11-06T02:37:00.841Z,15.4
2022-11-06T02:38:05.438Z,15.5
2022-11-06T02:39:12.968Z,15.7
2022-11-06T02:40:17.253Z,14.8
2022-11-06T02:41:21.810Z,15.2
2022-11-06T02:42:26.363Z,15.9
2022-11-06T02:43:31.042Z,15.8
2022-11-06T02:44:41.578Z,14.9
2022-11-06T02:45:46.119Z,15.2
2022-11-06T02:46:55.797Z,14.8
2022-11-06T02:48:03.582Z,14.5
2022-11-06T02:49:08.103Z,15.5
2022-11-06T02:50:17.698Z,15
2022-11-06T02:51:27.033Z,15.3
2022-11-06T02:52:31.686Z,16
2022-11-06T02:53:36.101Z,14.7
2022-11-06T02:54:40.861Z,15.8
2022-11-06T02:55:45.313Z,15.5
2022-11-06T02:56:52.554Z,16.3
2022-11-06T02:57:57.031Z,15.5
2022-11-06T02:59:01.586Z,15.4
2022-11-06T03:00:11.387Z,16.2
2022-11-06T03:01:16.021Z,16.7
2022-11-06T03:02:23.257Z,16.1
2022-11-06T03:03:35.713Z,16.5
2022-11-06T03:04:39.897Z,16.8
2022-11-06T03:05:47.286Z,16.7
2022-11-06T03:06:57.621Z,14.8
2022-11-06T03:08:01.846Z,16.4
2022-11-06T03:09:14.633Z,16.6
2022-11-06T03:10:19.157Z,15
2022-11-06T03:11:23.773Z,16.4
2022-11-06T03:12:30.953Z,16.8
2022-11-06T03:13:40.599Z,16.9
2022-11-06T03:14:50.214Z,17
2022-11-06T03:15:59.789Z,16.8
2022-11-06T03:17:04.066Z,17.7
2022-11-06T03:18:15.003Z,18
2022-11-06T03:19:24.297Z,18.9
2022-11-06T03:20:28.433Z,20.1
2022-11-06T03:21:40.590Z,21.1
2022-11-06T03:22:47.922Z,20.1
2022-11-06T03:23:55.429Z,21
2022-11-06T03:25:00.010Z,21.2
2022-11-06T03:26:09.685Z,21.8
2022-11-06T03:27:16.773Z,21.5
2022-11-06T03:28:21.029Z,22
2022-11-06T03:29:33.149Z,22.1
2022-11-06T03:30:42.709Z,22.1
2022-11-06T03:31:50.470Z,22.9
2022-11-06T03:32:55.125Z,23.6
2022-11-06T03:34:04.739Z,23.4
2022-11-06T03:35:08.813Z,24.5
2022-11-06T03:36:21.100Z,24.7
2022-11-06T03:37:25.216Z,23.6
2022-11-06T03:38:38.292Z,24.8
2022-11-06T03:39:41.882Z,24.3
2022-11-06T03:40:49.069Z,25.1
2022-11-06T03:41:53.713Z,25.5
2022-11-06T03:43:00.857Z,23.9
2022-11-06T03:44:05.326Z,24.8
2022-11-06T03:45:09.465Z,25.6
2022-11-06T03:46:13.750Z,25.6
2022-11-06T03:47:18.135Z,24.6
2022-11-06T03:48:25.305Z,24.6
2022-11-06T03:49:37.893Z,24.6
2022-11-06T03:50:41.990Z,25.1
2022-11-06T03:51:52.125Z,24.8
2022-11-06T03:52:56.184Z,25.6
2022-11-06T03:54:03.529Z,24.8
2022-11-06T03:55:15.693Z,26.1
2022-11-06T03:56:20.301Z,24.2
2022-11-06T03:57:29.967Z,25.6
2022-11-06T03:58:34.421Z,25.8
2022-11-06T03:59:38.548Z,24.7
2022-11-06T04:00:43.133Z,24.2
2022-11-06T04:01:47.343Z,24.7
2022-11-06T04:02:52.252Z,23.3
2022-11-06T04:03:56.378Z,24.2
2022-11-06T04:05:03.728Z,24.1
2022-11-06T04:06:08.289Z,23.8
2022-11-06T04:07:18.343Z,25
2022-11-06T04:08:22.926Z,24.2
2022-11-06T04:09:32.566Z,24.2
2022-11-06T04:10:42.235Z,23.8
2022-11-06T04:11:51.853Z,25.4
2022-11-06T04:13:01.544Z,22.8
2022-11-06T04:14:10.817Z,23.4
2022-11-06T04:15:15.350Z,21.4
2022-11-06T04:16:19.949Z,22.6
2022-11-06T04:17:27.130Z,22.4
2022-11-06T04:18:31.784Z,23.3
2022-11-06T04:19:36.197Z,24.1
2022-11-06T04:20:40.769Z,23.3
2022-11-06T04:21:55.734Z,23
2022-11-06T04:23:05.329Z,23.3
2022-11-06T04:24:19.949Z,21.8
2022-11-06T04:25:35.106Z,21.1
2022-11-06T04:26:47.821Z,21.8
2022-11-06T04:27:57.542Z,20.9
2022-11-06T04:29:06.785Z,19.9
2022-11-06T04:30:13.881Z,20.8
2022-11-06T04:31:21.113Z,21.2
2022-11-06T04:32:31.300Z,20.8
2022-11-06T04:33:40.918Z,20.7
2022-11-06T04:34:55.673Z,21.8
2022-11-06T04:36:05.286Z,20.3
2022-11-06T04:37:14.871Z,20
2022-11-06T04:38:22.057Z,20.5
2022-11-06T04:39:26.759Z,22.7
2022-11-06T04:40:36.219Z,20.9
2022-11-06T04:41:45.981Z,19.2
2022-11-06T04:42:53.125Z,19.1
2022-11-06T04:44:00.210Z,18.3
2022-11-06T04:45:04.366Z,18.4
2022-11-06T04:46:08.525Z,18.1
2022-11-06T04:47:13.049Z,17.4
2022-11-06T04:48:17.045Z,18.2
2022-11-06T04:49:21.319Z,17.3
2022-11-06T04:50:25.965Z,17.8
2022-11-06T04:51:30.452Z,17.8
2022-11-06T04:52:34.921Z,18.5
2022-11-06T04:53:39.425Z,17.9
2022-11-06T04:54:43.801Z,17.8
2022-11-06T04:55:48.186Z,17.2
2022-11-06T04:56:52.727Z,17.3
2022-11-06T04:57:59.957Z,15.7
2022-11-06T04:59:04.046Z,14.4
2022-11-06T05:00:08.629Z,15.4
2022-11-06T05:01:13.250Z,13.6
2022-11-06T05:02:17.905Z,14
2022-11-06T05:03:21.951Z,13.6
2022-11-06T05:04:26.593Z,13.1
2022-11-06T05:05:31.194Z,13.6
2022-11-06T05:06:35.647Z,14.5
2022-11-06T05:07:40.217Z,14.8
2022-11-06T05:08:44.706Z,13.7
2022-11-06T05:09:48.898Z,14.1
2022-11-06T05:10:53.318Z,15.2
2022-11-06T05:11:58.178Z,13.8
2022-11-06T05:13:02.735Z,13.9
2022-11-06T05:14:07.142Z,14.3
2022-11-06T05:15:11.231Z,13.5
2022-11-06T05:16:15.986Z,12.9
2022-11-06T05:17:20.425Z,13.2
2022-11-06T05:18:25.070Z,11.9
2022-11-06T05:19:29.691Z,12.6
2022-11-06T05:20:35.422Z,12.7
2022-11-06T05:21:39.745Z,11.7
2022-11-06T05:22:49.382Z,12
2022-11-06T05:23:58.713Z,11.5
2022-11-06T05:25:03.273Z,12.3
2022-11-06T05:26:07.829Z,12
2022-11-06T05:27:11.980Z,12.2
2022-11-06T05:28:16.746Z,12.2
2022-11-06T05:29:21.346Z,11.8
2022-11-06T05:30:25.733Z,11.6
2022-11-06T05:31:29.914Z,11.3
2022-11-06T05:32:34.262Z,12.5
2022-11-06T05:33:38.414Z,12.3
2022-11-06T05:34:42.475Z,12.9
2022-11-06T05:35:47.139Z,11.9
2022-11-06T05:36:51.757Z,12.4
2022-11-06T05:37:55.922Z,12.4
2022-11-06T05:39:00.775Z,12.3
2022-11-06T05:40:05.035Z,12.2
2022-11-06T05:41:09.661Z,11.9
2022-11-06T05:42:13.785Z,12.4
2022-11-06T05:43:18.205Z,12.2
2022-11-06T05:44:22.534Z,11.8
2022-11-06T05:45:27.032Z,12.1
2022-11-06T05:46:49.008Z,12.3
2022-11-06T05:47:36.159Z,13
2022-11-06T05:48:40.874Z,12.8
2022-11-06T05:49:45.461Z,13.1
2022-11-06T05:50:49.979Z,12.7
2022-11-06T05:51:54.495Z,12.2
2022-11-06T05:52:58.529Z,13.7
2022-11-06T05:54:02.855Z,12
2022-11-06T05:55:10.243Z,11.2
2022-11-06T05:56:11.902Z,11.6
2022-11-06T05:57:16.468Z,11.7
2022-11-06T05:58:21.148Z,11.2
2022-11-06T05:59:25.633Z,12.4
2022-11-06T06:00:30.152Z,12.9
2022-11-06T06:01:34.694Z,12.4
2022-11-06T06:02:39.166Z,12.2
2022-11-06T06:03:43.409Z,12.1
2022-11-06T06:04:48.081Z,12.2
2022-11-06T06:05:52.689Z,12.5
2022-11-06T06:06:56.859Z,13.1
2022-11-06T06:08:01.453Z,12.6
2022-11-06T06:09:06.018Z,12.3
2022-11-06T06:10:10.589Z,12
2022-11-06T06:11:15.217Z,12.1
2022-11-06T06:12:19.628Z,11.9
2022-11-06T06:13:23.625Z,11.9
2022-11-06T06:14:27.706Z,11.9
2022-11-06T06:15:31.789Z,10.9
2022-11-06T06:16:36.371Z,11
2022-11-06T06:17:40.397Z,11.1
2022-11-06T06:18:44.682Z,10.9
2022-11-06T06:19:49.117Z,10.5
2022-11-06T06:20:53.259Z,10.5
2022-11-06T06:21:58.215Z,11.9
2022-11-06T06:23:02.534Z,11.9
2022-11-06T06:24:07.045Z,11.3
2022-11-06T06:25:21.276Z,11.6
2022-11-06T06:26:16.109Z,11.2
2022-11-06T06:27:20.149Z,13.1
2022-11-06T06:28:24.345Z,11.2
2022-11-06T06:29:29.354Z,11.6
2022-11-06T06:30:33.914Z,10.8
2022-11-06T06:31:38.730Z,9.9
2022-11-06T06:32:43.037Z,10.4
2022-11-06T06:33:47.389Z,10.5
2022-11-06T06:34:51.762Z,9.6
2022-11-06T06:35:56.341Z,9.7
2022-11-06T06:37:00.995Z,10.1
2022-11-06T06:38:05.469Z,10.2
2022-11-06T06:39:10.030Z,9.7
2022-11-06T06:40:14.217Z,10
2022-11-06T06:41:18.901Z,10.3
2022-11-06T06:42:27.306Z,10.1
2022-11-06T06:43:30.558Z,9.5
2022-11-06T06:44:35.030Z,10.5
2022-11-06T06:45:39.489Z,10
2022-11-06T06:46:43.900Z,10
2022-11-06T06:47:48.287Z,10
2022-11-06T06:48:52.785Z,10.2
2022-11-06T06:49:57.469Z,10
2022-11-06T06:51:01.998Z,9.2
2022-11-06T06:52:06.633Z,9.4
2022-11-06T06:53:11.612Z,10.2
2022-11-06T06:54:15.830Z,10.3
2022-11-06T06:55:20.381Z,9.7
2022-11-06T06:56:25.133Z,8.8
2022-11-06T06:57:29.437Z,10
2022-11-06T06:58:33.793Z,10.1
2022-11-06T06:59:39.633Z,10.9
2022-11-06T07:00:44.379Z,10.2
2022-11-06T07:01:48.895Z,10.5
2022-11-06T07:02:52.977Z,10.3
2022-11-06T07:04:01.415Z,9.9
2022-11-06T07:05:01.715Z,10.3
2022-11-06T07:06:06.339Z,10.6
2022-11-06T07:07:10.969Z,11.2
2022-11-06T07:08:15.872Z,10.8
2022-11-06T07:09:19.585Z,10.6
2022-11-06T07:10:24.185Z,11.1
2022-11-06T07:11:28.957Z,9.5
2022-11-06T07:12:33.485Z,9.9
2022-11-06T07:13:37.929Z,9.8
2022-11-06T07:14:42.517Z,10.3
2022-11-06T07:15:47.106Z,10.7
2022-11-06T07:16:53.813Z,10.2
2022-11-06T07:17:56.489Z,10.6
2022-11-06T07:19:05.946Z,10.9
2022-11-06T07:20:10.441Z,11.1
2022-11-06T07:21:14.527Z,10.3
2022-11-06T07:22:23.394Z,10.8
2022-11-06T07:23:25.613Z,11
2022-11-06T07:24:30.942Z,11.5
2022-11-06T07:25:35.346Z,11.7
2022-11-06T07:26:39.517Z,11.9
2022-11-06T07:27:43.650Z,12.3
2022-11-06T07:28:47.769Z,12.4
2022-11-06T07:29:52.194Z,10.9
2022-11-06T07:30:56.467Z,12.2
2022-11-06T07:32:00.892Z,13
2022-11-06T07:33:04.961Z,13.7
2022-11-06T07:34:09.247Z,12.4
2022-11-06T07:35:13.859Z,14.3
2022-11-06T07:36:18.349Z,13.6
2022-11-06T07:37:22.552Z,13.7
2022-11-06T07:38:27.046Z,14.6
2022-11-06T07:39:31.590Z,15.2
2022-11-06T07:40:36.032Z,14.3
2022-11-06T07:41:40.588Z,14.5
2022-11-06T07:42:45.021Z,14.5
2022-11-06T07:43:49.303Z,15.2
2022-11-06T07:44:53.461Z,14.6
2022-11-06T07:45:58.065Z,14.4
2022-11-06T07:47:02.577Z,14.1
2022-11-06T07:48:06.613Z,13.5
2022-11-06T07:49:11.432Z,13.5
2022-11-06T07:50:15.968Z,13.7
2022-11-06T07:51:20.361Z,13.4
2022-11-06T07:52:24.545Z,14.2
2022-11-06T07:53:29.001Z,14
2022-11-06T07:54:33.291Z,14.2
2022-11-06T07:55:41.915Z,14.8
2022-11-06T07:56:42.259Z,14
2022-11-06T07:57:46.850Z,14.6
2022-11-06T07:58:51.134Z,14.1
2022-11-06T07:59:55.525Z,14.3
2022-11-06T08:00:59.748Z,15.7
2022-11-06T08:02:04.368Z,15.4
2022-11-06T08:03:08.316Z,15.2
2022-11-06T08:04:12.637Z,15.7
2022-11-06T08:05:17.030Z,15.4
2022-11-06T08:06:21.581Z,15.2
2022-11-06T08:07:26.302Z,15.7
2022-11-06T08:08:30.952Z,17
2022-11-06T08:09:35.508Z,16.1
2022-11-06T08:10:40.018Z,15.5
2022-11-06T08:11:44.545Z,15.3
2022-11-06T08:12:49.097Z,15.5
2022-11-06T08:13:53.321Z,15.7
2022-11-06T08:14:57.829Z,17.6
2022-11-06T08:16:01.889Z,19.7
2022-11-06T08:17:09.056Z,19.2
2022-11-06T08:18:14.002Z,17.7
2022-11-06T08:19:17.915Z,16.6
2022-11-06T08:20:22.400Z,16.8
2022-11-06T08:21:26.933Z,16.9
2022-11-06T08:22:31.053Z,15.9
2022-11-06T08:23:35.657Z,17.3
2022-11-06T08:24:40.177Z,18.4
2022-11-06T08:25:44.817Z,18.6
2022-11-06T08:26:49.256Z,19.2
2022-11-06T08:27:53.353Z,18.8
2022-11-06T08:28:58.059Z,17.1
2022-11-06T08:30:02.612Z,18.9
2022-11-06T08:31:07.720Z,19.6
2022-11-06T08:32:12.317Z,19.3
2022-11-06T08:33:16.524Z,18.5
2022-11-06T08:34:21.316Z,19.1
2022-11-06T08:35:25.661Z,19
2022-11-06T08:36:30.112Z,18.3
2022-11-06T08:37:34.221Z,17.4
2022-11-06T08:38:38.837Z,18.2
2022-11-06T08:39:43.412Z,16.1
2022-11-06T08:40:52.452Z,16.1
2022-11-06T08:41:52.500Z,16.9
2022-11-06T08:42:57.093Z,17.1
2022-11-06T08:44:01.612Z,16.8
2022-11-06T08:45:06.156Z,17.8
2022-11-06T08:46:10.394Z,18.2
2022-11-06T08:47:15.054Z,16.9
2022-11-06T08:48:19.604Z,18.1
2022-11-06T08:49:23.656Z,17.6
2022-11-06T08:50:27.749Z,16.8
2022-11-06T08:51:32.010Z,18
2022-11-06T08:52:36.400Z,17.1
2022-11-06T08:53:40.482Z,16.9
2022-11-06T08:54:44.524Z,16.2
2022-11-06T08:55:48.624Z,16.8
2022-11-06T08:56:52.757Z,18
2022-11-06T08:57:57.222Z,14.7
2022-11-06T08:59:01.400Z,17
2022-11-06T09:00:05.468Z,17
2022-11-06T09:01:10.481Z,16.3
2022-11-06T09:02:14.800Z,16.2
2022-11-06T09:03:19.352Z,16.9
2022-11-06T09:04:23.896Z,16.5
2022-11-06T09:05:28.049Z,18.9
2022-11-06T09:06:32.664Z,18.1
2022-11-06T09:07:37.332Z,16.7
2022-11-06T09:08:41.637Z,17.8
2022-11-06T09:09:45.840Z,16.4
2022-11-06T09:10:54.545Z,16
2022-11-06T09:11:55.050Z,17
2022-11-06T09:12:59.652Z,17.6
2022-11-06T09:14:04.192Z,17.7
2022-11-06T09:15:08.997Z,17.9
2022-11-06T09:16:15.945Z,18.3
2022-11-06T09:17:17.930Z,17.4
2022-11-06T09:18:22.037Z,16.2
2022-11-06T09:19:26.563Z,17.6
2022-11-06T09:20:31.229Z,17.3
2022-11-06T09:21:35.841Z,16.1
2022-11-06T09:22:40.248Z,15.7
2022-11-06T09:23:44.324Z,15.6
2022-11-06T09:25:04.599Z,14.1
2022-11-06T09:25:52.649Z,13.5
2022-11-06T09:26:57.256Z,12.5
2022-11-06T09:28:01.837Z,12.8
2022-11-06T09:29:06.305Z,12.4
2022-11-06T09:30:10.437Z,13.1
2022-11-06T09:31:15.045Z,15.2
2022-11-06T09:32:19.721Z,18.1
2022-11-06T09:33:24.165Z,18.2
2022-11-06T09:34:28.404Z,18.7
2022-11-06T09:35:32.953Z,19.6
2022-11-06T09:36:37.426Z,18.8
2022-11-06T09:37:41.637Z,18.4
2022-11-06T09:38:46.138Z,17.7
2022-11-06T09:39:50.646Z,17.8
2022-11-06T09:40:55.245Z,17
2022-11-06T09:41:59.916Z,15.2
2022-11-06T09:43:07.600Z,15.8
2022-11-06T09:44:22.172Z,16.5
2022-11-06T09:45:31.959Z,15.9
2022-11-06T09:46:36.013Z,15.6
2022-11-06T09:47:42.996Z,14.9
2022-11-06T09:48:47.337Z,14.9
2022-11-06T09:49:56.836Z,15.5
2022-11-06T09:51:01.810Z,15.6
2022-11-06T09:52:11.188Z,14.7
2022-11-06T09:53:19.139Z,13.9
2022-11-06T09:54:23.028Z,13.5
2022-11-06T09:55:35.128Z,14.6
2022-11-06T09:56:39.753Z,15
2022-11-06T09:57:44.288Z,16.1
2022-11-06T09:58:59.265Z,16.3
2022-11-06T10:00:06.213Z,15.7
2022-11-06T10:01:17.581Z,17.1
2022-11-06T10:02:20.479Z,16
2022-11-06T10:03:30.021Z,16.4
2022-11-06T10:04:37.101Z,16.7
2022-11-06T10:05:41.625Z,17.6
2022-11-06T10:06:45.749Z,17.3
2022-11-06T10:07:50.384Z,18.4
2022-11-06T10:08:54.846Z,17.9
2022-11-06T10:09:59.084Z,18.4
2022-11-06T10:11:03.641Z,17.9
2022-11-06T10:12:15.900Z,18.3
2022-11-06T10:13:30.573Z,17.8
2022-11-06T10:14:45.231Z,16.8
2022-11-06T10:15:54.925Z,16.8
2022-11-06T10:17:07.085Z,17.7
2022-11-06T10:18:14.667Z,19
2022-11-06T10:19:23.957Z,18
2022-11-06T10:20:33.561Z,17.3
2022-11-06T10:21:43.216Z,17.9
2022-11-06T10:22:57.978Z,18.9
2022-11-06T10:24:02.060Z,18.8
2022-11-06T10:25:06.743Z,17.9
2022-11-06T10:26:19.600Z,18
2022-11-06T10:27:32.168Z,17.3
2022-11-06T10:28:41.893Z,16.9
2022-11-06T10:29:48.861Z,16.7
2022-11-06T10:30:58.580Z,13.6
2022-11-06T10:32:08.328Z,15.1
2022-11-06T10:33:15.525Z,16.3
2022-11-06T10:34:23.056Z,14.6
2022-11-06T10:35:35.416Z,13.5
2022-11-06T10:36:39.766Z,13.8
2022-11-06T10:37:52.306Z,12.4
2022-11-06T10:39:04.845Z,11.8
2022-11-06T10:40:11.853Z,12.6
2022-11-06T10:41:16.500Z,12.6
2022-11-06T10:42:24.013Z,12.3
2022-11-06T10:43:28.492Z,12.6
2022-11-06T10:44:35.824Z,14.5
2022-11-06T10:45:45.497Z,14.2
2022-11-06T10:46:49.940Z,14
2022-11-06T10:47:54.440Z,14.2
2022-11-06T10:49:04.197Z,15.8
2022-11-06T10:50:13.832Z,14
2022-11-06T10:51:18.418Z,16.1
2022-11-06T10:52:30.625Z,14.7
2022-11-06T10:53:40.245Z,14.9
2022-11-06T10:54:49.369Z,15.3
2022-11-06T10:56:08.222Z,15.4
2022-11-06T10:57:11.539Z,14.7
2022-11-06T10:58:21.389Z,16.7
2022-11-06T10:59:30.778Z,14.7
2022-11-06T11:00:35.462Z,15.9
2022-11-06T11:01:40.007Z,16.2
2022-11-06T11:02:43.899Z,16.5
2022-11-06T11:03:53.565Z,16.7
2022-11-06T11:04:58.324Z,18
2022-11-06T11:06:01.981Z,17.8
2022-11-06T11:07:06.507Z,18.8
2022-11-06T11:08:11.457Z,17.9
2022-11-06T11:09:25.838Z,20.6
2022-11-06T11:10:30.097Z,20.1
2022-11-06T11:11:34.507Z,18.7
2022-11-06T11:12:38.910Z,20.9
2022-11-06T11:13:43.083Z,20.5
2022-11-06T11:14:53.267Z,20.8
2022-11-06T11:16:06.221Z,18.5
2022-11-06T11:17:16.291Z,19
2022-11-06T11:18:20.894Z,25.6
2022-11-06T11:19:25.449Z,18.6
2022-11-06T11:20:38.094Z,26.3
2022-11-06T11:21:42.114Z,27
2022-11-06T11:22:54.383Z,37.7
2022-11-06T11:24:09.268Z,20.1
2022-11-06T11:25:13.946Z,17.2
2022-11-06T11:26:26.151Z,16.5
2022-11-06T11:27:30.797Z,13.1
2022-11-06T11:28:43.273Z,21.4
2022-11-06T11:29:50.521Z,21.3
2022-11-06T11:30:54.593Z,18.7
2022-11-06T11:32:06.911Z,15.1
2022-11-06T11:33:11.471Z,15.7
2022-11-06T11:34:15.933Z,17.1
2022-11-06T11:35:20.073Z,14.6
2022-11-06T11:36:27.682Z,15.4
2022-11-06T11:37:31.937Z,15.6
2022-11-06T11:38:36.447Z,14.5
2022-11-06T11:39:40.849Z,15.8
2022-11-06T11:40:45.053Z,15.5
2022-11-06T11:41:49.645Z,23.2
2022-11-06T11:42:54.161Z,19.1
2022-11-06T11:43:58.285Z,16.9
2022-11-06T11:45:05.589Z,16.6
2022-11-06T11:46:10.245Z,15.8
2022-11-06T11:47:17.354Z,15.7
2022-11-06T11:48:21.749Z,16.8
2022-11-06T11:49:26.346Z,17.7
2022-11-06T11:50:34.108Z,16.4
2022-11-06T11:51:38.436Z,16.3
2022-11-06T11:52:45.833Z,17.1
2022-11-06T11:53:50.335Z,15.6
2022-11-06T11:55:00.829Z,17.4
2022-11-06T11:56:06.306Z,17.3
2022-11-06T11:57:11.317Z,16.5
2022-11-06T11:58:18.833Z,16.2
2022-11-06T11:59:28.590Z,16.8
2022-11-06T12:00:38.537Z,16.6
2022-11-06T12:01:43.203Z,17.7
2022-11-06T12:02:47.374Z,20.9
2022-11-06T12:03:51.919Z,18.1
2022-11-06T12:04:55.928Z,18.5
2022-11-06T12:06:00.692Z,19.4
2022-11-06T12:07:08.390Z,18.4
2022-11-06T12:08:15.974Z,17.8
2022-11-06T12:09:22.957Z,17.6
2022-11-06T12:10:27.245Z,16.9
2022-11-06T12:11:34.254Z,18.1
2022-11-06T12:12:38.750Z,16.3
2022-11-06T12:13:43.345Z,19.1
2022-11-06T12:14:48.273Z,16.3
2022-11-06T12:16:03.313Z,17.9
2022-11-06T12:17:07.745Z,16.5
2022-11-06T12:18:20.232Z,15.8
2022-11-06T12:19:34.753Z,41.4
2022-11-06T12:20:39.424Z,20.7
2022-11-06T12:21:54.024Z,15.6
2022-11-06T12:22:58.144Z,16.2
2022-11-06T12:24:02.724Z,16.2
2022-11-06T12:25:15.139Z,16.5
2022-11-06T12:26:25.789Z,16.6
2022-11-06T12:27:30.352Z,16.3
2022-11-06T12:28:38.068Z,17.9
2022-11-06T12:29:42.562Z,19.1
2022-11-06T12:30:53.130Z,18.6
2022-11-06T12:31:57.208Z,19.5
2022-11-06T12:33:04.572Z,18
2022-11-06T12:34:17.959Z,18.6
2022-11-06T12:35:25.577Z,19
2022-11-06T12:36:33.028Z,17.9
2022-11-06T12:37:37.360Z,16.5
2022-11-06T12:38:52.162Z,18.1
2022-11-06T12:39:56.770Z,17.7
2022-11-06T12:41:01.292Z,22.1
2022-11-06T12:42:11.064Z,22.3
2022-11-06T12:43:15.561Z,18.5
2022-11-06T12:44:25.556Z,23.8
2022-11-06T12:45:31.092Z,23.8
2022-11-06T12:46:35.956Z,21
2022-11-06T12:47:43.068Z,20.7
2022-11-06T12:48:52.790Z,21.3
2022-11-06T12:50:07.448Z,17.8
2022-11-06T12:51:22.264Z,16.2
2022-11-06T12:52:31.461Z,15.7
2022-11-06T12:53:40.956Z,16.8
2022-11-06T12:54:50.708Z,19.4
2022-11-06T12:56:05.525Z,46.2
2022-11-06T12:57:17.752Z,256.5
2022-11-06T12:58:32.444Z,134.4
2022-11-06T12:59:42.151Z,109.7
2022-11-06T13:00:57.093Z,65.6
2022-11-06T13:02:09.785Z,27.7
2022-11-06T13:03:19.679Z,31.7
2022-11-06T13:04:34.932Z,30
2022-11-06T13:05:42.316Z,18.2
2022-11-06T13:06:56.960Z,19.2
2022-11-06T13:08:06.188Z,17.5
2022-11-06T13:09:15.812Z,19.6
2022-11-06T13:10:25.473Z,18.7
2022-11-06T13:11:35.624Z,14.6
2022-11-06T13:12:45.844Z,14.1
2022-11-06T13:14:00.581Z,13.6
2022-11-06T13:15:10.891Z,12.3
2022-11-06T13:16:23.076Z,14.2
2022-11-06T13:17:32.686Z,13.1
2022-11-06T13:18:42.272Z,13.4
2022-11-06T13:19:51.896Z,12.5
2022-11-06T13:20:56.235Z,13.5
2022-11-06T13:22:10.858Z,14
2022-11-06T13:23:23.028Z,14.7
2022-11-06T13:24:35.269Z,13.7
2022-11-06T13:25:49.919Z,15.8
2022-11-06T13:26:53.935Z,14.4
2022-11-06T13:28:01.105Z,12.8
2022-11-06T13:29:11.029Z,13.2
2022-11-06T13:30:15.483Z,13
2022-11-06T13:31:19.995Z,14.3
2022-11-06T13:32:27.175Z,13.3
2022-11-06T13:33:31.752Z,12.6
2022-11-06T13:34:42.284Z,12.1
2022-11-06T13:35:46.534Z,13.8
2022-11-06T13:36:51.177Z,13.2
2022-11-06T13:37:55.788Z,15.6
2022-11-06T13:39:00.320Z,14
2022-11-06T13:40:10.536Z,13.1
2022-11-06T13:41:25.340Z,14.1
2022-11-06T13:42:29.904Z,14.4
2022-11-06T13:43:34.472Z,13.9
2022-11-06T13:44:41.339Z,13.6
2022-11-06T13:45:45.504Z,13.9
2022-11-06T13:46:55.617Z,14.7
2022-11-06T13:48:10.545Z,13.5
2022-11-06T13:49:22.743Z,14
2022-11-06T13:50:34.913Z,14.4
2022-11-06T13:51:44.963Z,14
2022-11-06T13:52:52.060Z,14.6
2022-11-06T13:54:04.338Z,14.3
2022-11-06T13:55:16.615Z,14
2022-11-06T13:56:23.808Z,14
2022-11-06T13:57:35.943Z,14
2022-11-06T13:58:50.686Z,14.1
2022-11-06T14:00:05.523Z,14
2022-11-06T14:01:17.916Z,13.7
2022-11-06T14:02:30.316Z,13.3
2022-11-06T14:03:42.548Z,13.2
2022-11-06T14:04:53.621Z,14.5
2022-11-06T14:06:06.959Z,14.5
2022-11-06T14:07:22.059Z,13.9
2022-11-06T14:08:26.388Z,13.7
2022-11-06T14:09:41.160Z,13.5
2022-11-06T14:10:45.271Z,15.4
2022-11-06T14:11:52.536Z,14.2
2022-11-06T14:12:59.603Z,16.1
2022-11-06T14:14:03.579Z,14.8
2022-11-06T14:15:13.387Z,14.6
2022-11-06T14:16:20.663Z,15
2022-11-06T14:17:25.484Z,15.5
2022-11-06T14:18:29.767Z,15.1
2022-11-06T14:19:33.891Z,16
2022-11-06T14:20:38.404Z,15.7
2022-11-06T14:21:42.881Z,16.1
2022-11-06T14:22:50.479Z,15.7
2022-11-06T14:23:54.692Z,16.1
2022-11-06T14:25:10.009Z,15.8
2022-11-06T14:26:24.779Z,15.6
2022-11-06T14:27:36.978Z,15.7
2022-11-06T14:28:41.415Z,16.6
2022-11-06T14:29:45.495Z,16.8
2022-11-06T14:31:19.838Z,15.7
2022-11-06T14:32:05.079Z,16.6
2022-11-06T14:33:17.242Z,16.4
2022-11-06T14:34:32.032Z,17.2
2022-11-06T14:35:36.275Z,17.1
2022-11-06T14:36:40.450Z,15.5
2022-11-06T14:37:44.620Z,16.8
2022-11-06T14:38:48.933Z,15.5
2022-11-06T14:39:53.372Z,16.1
2022-11-06T14:40:58.005Z,16.5
2022-11-06T14:42:02.655Z,16.1
2022-11-06T14:43:07.131Z,17
2022-11-06T14:44:23.151Z,16.2
2022-11-06T14:45:27.577Z,16.8
2022-11-06T14:46:32.067Z,17.6
2022-11-06T14:47:36.603Z,16.3
2022-11-06T14:48:46.272Z,16.6
2022-11-06T14:49:51.167Z,16.7